Time;durP1;ratioP1;P1;durP2;ratioP2;P2;SDS_P1;SDS_P2;PMS_P1;PMS_P2;Temp;Humidity;BMP_temperature;BMP_pressure;BME280_temperature;BME280_humidity;BME280_pressure;Samples;Min_cycle;Max_cycle;Signal;HPM_P1;HPM_P2
2022/06/04 00:00:16;;;;;;;16.50;10.55;;;10.20;99.90;;;;;;5049787;28;20045;-92
2022/06/04 00:02:56;;;;;;;;;;;;;;;;;;;;;
2022/06/04 00:05:42;;;;;;;15.23;9.90;;;10.20;99.90;;;;;;5031736;28;20054;-91
2022/06/04 00:08:15;;;;;;;20.10;9.95;;;10.30;99.90;;;;;;5015902;28;20068;-93
2022/06/04 00:16:34;;;;;;;16.50;9.60;;;10.20;99.90;;;;;;5028354;28;20045;-93
2022/06/04 00:19:05;;;;;;;15.10;10.40;;;10.20;99.90;;;;;;5011329;28;20037;-94
2022/06/04 00:21:34;;;;;;;17.23;9.93;;;10.20;99.90;;;;;;5005942;28;20045;-92
2022/06/04 00:24:16;;;;;;;16.50;10.50;;;10.10;99.90;;;;;;5029473;28;20176;-93
2022/06/04 00:26:44;;;;;;;16.13;10.73;;;10.20;99.90;;;;;;5000226;28;20045;-92
2022/06/04 00:29:15;;;;;;;22.83;10.68;;;10.20;99.90;;;;;;5013789;28;20049;-91
2022/06/04 00:31:54;;;;;;;;;;;;;;;;;;;;;
2022/06/04 00:34:22;;;;;;;21.90;9.93;;;10.10;99.90;;;;;;5050880;28;20517;-92
2022/06/04 00:36:56;;;;;;;18.42;10.25;;;10.20;99.90;;;;;;5016800;28;20049;-94
2022/06/04 00:39:28;;;;;;;16.45;9.98;;;10.10;99.90;;;;;;5016288;28;20104;-94
2022/06/04 00:42:14;;;;;;;17.60;9.63;;;10.10;99.90;;;;;;5050343;28;20510;-93
2022/06/04 00:45:17;;;;;;;19.27;10.38;;;10.20;99.90;;;;;;5025115;28;20083;-94
2022/06/04 00:47:55;;;;;;;15.73;9.05;;;10.20;99.90;;;;;;5011629;28;20049;-94
2022/06/04 00:50:44;;;;;;;;;;;;;;;;;;;;;
2022/06/04 00:53:29;;;;;;;23.17;9.90;;;10.20;99.90;;;;;;5022680;28;20065;-94
2022/06/04 00:59:12;;;;;;;16.48;8.93;;;10.20;99.90;;;;;;5016965;28;20050;-93
2022/06/04 01:02:13;;;;;;;19.38;10.00;;;10.10;99.90;;;;;;5017238;28;20049;-93
2022/06/04 01:05:04;;;;;;;18.90;9.95;;;10.10;99.90;;;;;;4983508;28;20504;-91
2022/06/04 01:07:36;;;;;;;16.30;8.93;;;10.00;99.90;;;;;;5031238;28;20049;-93
2022/06/04 01:10:43;;;;;;;13.77;9.23;;;10.10;99.90;;;;;;5012581;28;20042;-93
2022/06/04 01:13:28;;;;;;;16.58;9.50;;;10.20;99.90;;;;;;5003728;28;20054;-91
2022/06/04 01:16:07;;;;;;;15.73;9.60;;;10.10;99.90;;;;;;5015641;28;20514;-92
2022/06/04 01:19:12;;;;;;;;;;;;;;;;;;;;;
2022/06/04 01:22:15;;;;;;;20.45;10.18;;;10.10;99.90;;;;;;5023481;28;20042;-92
2022/06/04 01:25:15;;;;;;;18.27;10.45;;;10.10;99.90;;;;;;5013580;28;20045;-92
2022/06/04 01:27:52;;;;;;;17.48;10.40;;;10.10;99.90;;;;;;5014903;28;20050;-91
2022/06/04 01:30:29;;;;;;;23.30;10.95;;;10.10;99.90;;;;;;5026498;28;20046;-93
2022/06/04 01:33:41;;;;;;;14.23;10.00;;;10.10;99.90;;;;;;5002036;28;20045;-94
2022/06/04 01:36:48;;;;;;;21.30;10.63;;;10.10;99.90;;;;;;5029056;28;20152;-94
2022/06/04 01:41:03;;;;;;;16.13;10.82;;;9.90;99.90;;;;;;4990701;28;20076;-94
2022/06/04 01:42:45;;;;;;;22.15;11.57;;;10.00;99.90;;;;;;5030967;28;20487;-94
2022/06/04 01:45:35;;;;;;;20.50;11.23;;;9.90;99.90;;;;;;5024420;28;20545;-94
2022/06/04 01:48:05;;;;;;;24.42;12.23;;;9.80;99.90;;;;;;5007825;28;20050;-93
2022/06/04 01:50:56;;;;;;;23.38;12.25;;;9.80;99.90;;;;;;5018311;28;20483;-94
2022/06/04 01:53:54;;;;;;;25.75;12.32;;;9.80;99.90;;;;;;5050802;28;20076;-94
2022/06/04 01:56:44;;;;;;;23.58;12.70;;;9.80;99.90;;;;;;5041146;28;20053;-93
2022/06/04 02:02:44;;;;;;;;;;;;;;;;;;;;;
2022/06/04 02:05:27;;;;;;;;;;;;;;;;;;;;;
2022/06/04 02:08:07;;;;;;;28.48;12.90;;;9.70;99.90;;;;;;5031548;28;20571;-93
2022/06/04 02:11:07;;;;;;;21.48;12.77;;;9.70;99.90;;;;;;5010335;28;20055;-93
2022/06/04 02:13:57;;;;;;;27.73;13.68;;;9.60;99.90;;;;;;5004013;28;20514;-91
2022/06/04 02:17:17;;;;;;;;;;;;;;;;;;;;;
2022/06/04 02:19:56;;;;;;;27.40;13.77;;;9.60;99.90;;;;;;5066710;28;20140;-92
2022/06/04 02:22:25;;;;;;;23.80;14.17;;;9.60;99.90;;;;;;5017306;28;20091;-93
2022/06/04 02:24:53;;;;;;;23.35;13.60;;;9.50;99.90;;;;;;5017383;28;20784;-92
2022/06/04 02:27:25;;;;;;;24.58;14.18;;;9.50;99.90;;;;;;5018437;28;20086;-91
2022/06/04 02:30:07;;;;;;;26.73;13.93;;;9.50;99.90;;;;;;5018431;28;20053;-91
2022/06/04 02:33:03;;;;;;;23.13;12.95;;;9.50;99.90;;;;;;5017555;28;20056;-91
2022/06/04 02:35:51;;;;;;;23.70;14.13;;;9.50;99.90;;;;;;5032605;28;20045;-91
2022/06/04 02:38:28;;;;;;;20.25;13.15;;;9.40;99.90;;;;;;5033771;28;20049;-90
2022/06/04 02:41:11;;;;;;;37.58;13.75;;;9.40;99.90;;;;;;5017328;28;20140;-91
2022/06/04 02:43:55;;;;;;;24.45;14.10;;;9.30;99.90;;;;;;5016929;28;20048;-91
2022/06/04 02:46:45;;;;;;;27.52;12.95;;;9.30;99.90;;;;;;5016947;28;20084;-91
2022/06/04 02:49:43;;;;;;;21.98;12.80;;;9.30;99.90;;;;;;5004362;28;20049;-91
2022/06/04 02:52:23;;;;;;;24.88;12.15;;;9.30;99.90;;;;;;5015065;28;20128;-90
2022/06/04 02:55:28;;;;;;;27.25;12.80;;;9.20;99.90;;;;;;5016661;28;20045;-89
2022/06/04 02:58:04;;;;;;;;;;;9.20;99.90;;;;;;5020111;28;20551;-91
2022/06/04 03:03:37;;;;;;;23.95;12.77;;;9.10;99.90;;;;;;5012479;28;20053;-91
2022/06/04 03:06:35;;;;;;;;;;;;;;;;;;;;;
2022/06/04 03:09:24;;;;;;;24.05;13.20;;;9.10;99.90;;;;;;5030035;28;20498;-93
2022/06/04 03:12:26;;;;;;;25.70;13.82;;;9.10;99.90;;;;;;5008907;28;20059;-91
2022/06/04 03:15:07;;;;;;;;;;;;;;;;;;;;;
2022/06/04 03:17:53;;;;;;;29.65;14.23;;;9.10;99.90;;;;;;5016259;28;20049;-92
2022/06/04 03:20:36;;;;;;;26.38;13.60;;;9.10;99.90;;;;;;5047261;28;20809;-91
2022/06/04 03:23:04;;;;;;;26.38;13.43;;;9.00;99.90;;;;;;5002020;28;20041;-91
2022/06/04 03:25:34;;;;;;;20.75;12.95;;;9.00;99.90;;;;;;5013545;28;20077;-91
2022/06/04 03:28:05;;;;;;;36.13;14.20;;;9.10;99.90;;;;;;5017030;28;20045;-91
2022/06/04 03:30:50;;;;;;;21.15;12.32;;;9.10;99.90;;;;;;5018434;28;20120;-90
2022/06/04 03:33:27;;;;;;;22.30;12.50;;;9.10;99.90;;;;;;5017487;28;20045;-90
2022/06/04 03:36:01;;;;;;;25.10;12.25;;;9.00;99.90;;;;;;5016312;28;20060;-91
2022/06/04 03:38:34;;;;;;;19.63;11.30;;;9.20;99.90;;;;;;5013717;28;20149;-91
2022/06/04 03:41:06;;;;;;;24.13;11.57;;;9.10;99.90;;;;;;5027766;28;20060;-90
2022/06/04 03:43:34;;;;;;;26.70;11.73;;;9.10;99.90;;;;;;5007835;28;20042;-90
2022/06/04 03:46:07;;;;;;;18.67;11.57;;;9.10;99.90;;;;;;4994607;28;20053;-93
2022/06/04 03:48:36;;;;;;;18.15;10.68;;;9.10;99.90;;;;;;5011411;28;20052;-92
2022/06/04 03:53:56;;;;;;;16.45;10.18;;;9.10;99.90;;;;;;5017903;28;20458;-94
2022/06/04 03:57:37;;;;;;;17.52;10.32;;;9.20;99.90;;;;;;5036566;28;20056;-94
2022/06/04 03:59:26;;;;;;;20.13;9.90;;;9.20;99.90;;;;;;5030951;28;20049;-95
2022/06/04 04:02:07;;;;;;;21.90;10.65;;;9.30;99.90;;;;;;5018259;28;20046;-93
2022/06/04 04:04:55;;;;;;;19.10;10.55;;;9.30;99.90;;;;;;5015276;28;20450;-93
2022/06/04 04:07:29;;;;;;;21.27;10.68;;;9.30;99.90;;;;;;5008313;28;20042;-94
2022/06/04 04:10:05;;;;;;;16.45;9.70;;;9.30;99.90;;;;;;5016195;28;20046;-93
2022/06/04 04:12:56;;;;;;;21.73;10.95;;;9.40;99.90;;;;;;5025674;28;20043;-92
2022/06/04 04:15:28;;;;;;;15.23;9.63;;;9.40;99.90;;;;;;5017771;28;20038;-90
2022/06/04 04:17:57;;;;;;;17.50;9.88;;;9.50;99.90;;;;;;5016049;28;20073;-92
2022/06/04 04:20:28;;;;;;;23.25;10.77;;;9.40;99.90;;;;;;5031751;28;20130;-92
2022/06/04 04:22:58;;;;;;;17.27;9.70;;;9.60;99.90;;;;;;5014885;28;20035;-92
2022/06/04 04:25:27;;;;;;;16.85;9.88;;;9.50;99.90;;;;;;5048418;28;20141;-92
2022/06/04 04:28:15;;;;;;;15.05;9.65;;;9.60;99.90;;;;;;5015247;28;20041;-92
2022/06/04 04:31:14;;;;;;;16.63;9.13;;;9.60;99.90;;;;;;4999006;28;20637;-93
2022/06/04 04:33:45;;;;;;;15.85;8.88;;;9.60;99.90;;;;;;5029419;28;20041;-93
2022/06/04 04:36:14;;;;;;;14.48;8.63;;;9.60;99.90;;;;;;5014613;28;20044;-92
2022/06/04 04:38:45;;;;;;;17.23;8.60;;;9.70;99.90;;;;;;5015485;28;20094;-93
2022/06/04 04:41:18;;;;;;;15.18;8.45;;;9.70;99.90;;;;;;5016343;28;20041;-94
2022/06/04 04:43:48;;;;;;;13.82;7.57;;;9.70;99.90;;;;;;5032568;28;20037;-93
2022/06/04 04:46:17;;;;;;;13.13;7.65;;;9.80;99.90;;;;;;5014932;28;20052;-93
2022/06/04 04:48:48;;;;;;;14.40;7.38;;;9.80;99.90;;;;;;5012778;28;20098;-93
2022/06/04 04:51:34;;;;;;;17.38;8.02;;;9.90;99.90;;;;;;5046549;28;20434;-91
2022/06/04 04:54:02;;;;;;;14.48;7.75;;;10.00;99.90;;;;;;4999398;28;20046;-91
2022/06/04 04:56:28;;;;;;;12.60;7.47;;;10.00;99.90;;;;;;5033263;28;20041;-93
2022/06/04 04:58:56;;;;;;;12.02;7.00;;;10.10;99.90;;;;;;5017177;28;20045;-93
2022/06/04 05:01:27;;;;;;;11.15;7.38;;;10.10;99.90;;;;;;5015981;28;20049;-90
2022/06/04 05:03:56;;;;;;;11.70;6.90;;;10.20;99.90;;;;;;5014911;28;20134;-91
2022/06/04 05:06:43;;;;;;;10.82;7.38;;;10.20;99.90;;;;;;5013359;28;20149;-91
2022/06/04 05:09:18;;;;;;;14.02;7.20;;;10.20;99.90;;;;;;5027798;28;20045;-89
2022/06/04 05:11:46;;;;;;;11.80;6.88;;;10.30;99.90;;;;;;5033853;28;20179;-87
2022/06/04 05:14:15;;;;;;;15.00;7.00;;;10.40;99.90;;;;;;5031198;28;20071;-87
2022/06/04 05:16:46;;;;;;;8.52;6.65;;;10.40;99.90;;;;;;5014086;28;20045;-87
2022/06/04 05:19:14;;;;;;;9.57;6.13;;;10.40;99.90;;;;;;5014996;28;20530;-87
2022/06/04 05:21:45;;;;;;;10.55;6.57;;;10.50;99.90;;;;;;5010799;28;20049;-88
2022/06/04 05:24:26;;;;;;;13.70;6.75;;;10.60;99.90;;;;;;5038202;28;20054;-89
2022/06/04 05:26:55;;;;;;;11.85;6.40;;;10.60;99.90;;;;;;5066433;28;20045;-87
2022/06/04 05:29:34;;;;;;;;;;;;;;;;;;;;;
2022/06/04 05:32:09;;;;;;;12.18;6.30;;;10.80;99.90;;;;;;5018857;28;20053;-89
2022/06/04 05:34:38;;;;;;;9.43;6.55;;;10.80;99.90;;;;;;5049089;28;20048;-87
2022/06/04 05:37:04;;;;;;;11.73;6.30;;;10.90;99.90;;;;;;5034346;28;20049;-88
2022/06/04 05:39:36;;;;;;;9.68;6.43;;;11.00;99.90;;;;;;5032770;28;20411;-88
2022/06/04 05:42:07;;;;;;;13.07;6.45;;;11.00;99.90;;;;;;5013367;28;20049;-88
2022/06/04 05:44:36;;;;;;;8.68;6.18;;;11.10;99.90;;;;;;5019073;28;20132;-89
2022/06/04 05:47:07;;;;;;;12.80;6.65;;;11.20;99.90;;;;;;5002372;28;20135;-88
2022/06/04 05:49:38;;;;;;;11.00;5.25;;;11.30;99.90;;;;;;5027420;28;20053;-90
2022/06/04 05:52:06;;;;;;;11.50;5.97;;;11.40;99.90;;;;;;5031049;28;20115;-88
2022/06/04 05:54:37;;;;;;;10.70;6.55;;;11.40;99.90;;;;;;5012609;28;20046;-88
2022/06/04 05:57:06;;;;;;;10.20;5.95;;;11.60;99.90;;;;;;5028160;28;20057;-88
2022/06/04 05:59:35;;;;;;;10.75;5.85;;;11.60;99.90;;;;;;5017609;28;20049;-88
2022/06/04 06:02:17;;;;;;;7.25;5.80;;;11.80;99.90;;;;;;5035086;28;20446;-88
2022/06/04 06:04:55;;;;;;;8.10;5.32;;;12.00;99.90;;;;;;5018798;28;20077;-88
2022/06/04 06:07:24;;;;;;;8.20;5.68;;;12.10;99.90;;;;;;5003133;28;20049;-88
2022/06/04 06:09:56;;;;;;;11.20;5.63;;;12.20;99.90;;;;;;5018830;28;20052;-87
2022/06/04 06:12:25;;;;;;;9.30;6.03;;;12.40;99.90;;;;;;5035353;28;20065;-87
2022/06/04 06:14:56;;;;;;;9.80;5.20;;;12.50;99.90;;;;;;5018585;28;20075;-87
2022/06/04 06:17:29;;;;;;;8.43;5.60;;;12.70;99.90;;;;;;5018944;28;20045;-87
2022/06/04 06:19:55;;;;;;;7.97;5.90;;;12.80;99.90;;;;;;5002679;28;20056;-88
2022/06/04 06:22:27;;;;;;;10.82;5.03;;;12.90;99.90;;;;;;5019033;28;20048;-88
2022/06/04 06:24:58;;;;;;;7.88;5.28;;;13.00;99.90;;;;;;5025216;28;20041;-88
2022/06/04 06:27:28;;;;;;;9.75;5.25;;;13.00;99.90;;;;;;5018659;28;20057;-88
2022/06/04 06:29:54;;;;;;;7.00;5.28;;;13.20;99.90;;;;;;5018091;28;20049;-89
2022/06/04 06:32:26;;;;;;;9.05;5.47;;;13.30;99.90;;;;;;5017535;28;20099;-89
2022/06/04 06:34:55;;;;;;;9.13;5.40;;;13.50;99.90;;;;;;5032002;28;20082;-88
2022/06/04 06:37:25;;;;;;;8.93;5.38;;;13.70;99.90;;;;;;4991654;28;20049;-88
2022/06/04 06:39:54;;;;;;;9.75;5.43;;;13.70;99.90;;;;;;5016781;28;20041;-87
2022/06/04 06:42:27;;;;;;;7.35;4.90;;;13.90;99.90;;;;;;5016713;28;20044;-87
2022/06/04 06:44:55;;;;;;;7.70;5.03;;;14.10;99.90;;;;;;5029954;28;20360;-87
2022/06/04 06:47:44;;;;;;;;;;;;;;;;;;;;;
2022/06/04 06:50:18;;;;;;;8.20;5.53;;;14.50;99.90;;;;;;5034228;28;20049;-87
2022/06/04 06:52:55;;;;;;;6.32;4.80;;;14.60;99.90;;;;;;5017136;28;20095;-90
2022/06/04 06:55:26;;;;;;;8.43;4.72;;;14.70;99.90;;;;;;5031927;28;20042;-88
2022/06/04 06:58:38;;;;;;;7.50;5.18;;;14.90;99.90;;;;;;5015173;28;20075;-88
2022/06/04 07:01:13;;;;;;;6.60;4.75;;;15.20;99.90;;;;;;5004385;28;20523;-87
2022/06/04 07:03:57;;;;;;;6.28;5.07;;;15.40;99.90;;;;;;5011508;28;20095;-88
2022/06/04 07:06:58;;;;;;;8.50;4.40;;;15.50;99.90;;;;;;5003307;28;20061;-89
2022/06/04 07:09:36;;;;;;;5.88;4.43;;;15.70;99.90;;;;;;5047135;28;20046;-91
2022/06/04 07:12:07;;;;;;;4.50;3.50;;;15.90;99.90;;;;;;5017360;28;20041;-86
2022/06/04 07:14:33;;;;;;;6.18;4.10;;;16.00;99.90;;;;;;5040677;28;20048;-85
2022/06/04 07:17:05;;;;;;;8.80;4.43;;;16.20;99.90;;;;;;5001519;28;20121;-86
2022/06/04 07:19:31;;;;;;;7.70;4.57;;;16.40;99.90;;;;;;5011206;28;20045;-87
2022/06/04 07:21:59;;;;;;;6.55;4.28;;;16.50;99.90;;;;;;5012055;28;20030;-85
2022/06/04 07:24:28;;;;;;;8.07;4.55;;;16.60;99.90;;;;;;5014963;28;20076;-85
2022/06/04 07:26:57;;;;;;;4.95;3.92;;;16.70;99.90;;;;;;5011849;28;20080;-89
2022/06/04 07:29:33;;;;;;;5.47;4.28;;;16.80;99.90;;;;;;5024739;28;20479;-87
2022/06/04 07:32:09;;;;;;;6.00;4.15;;;17.00;99.90;;;;;;5031036;28;20046;-88
2022/06/04 07:34:37;;;;;;;4.72;4.00;;;17.30;99.90;;;;;;5028251;28;20128;-85
2022/06/04 07:37:05;;;;;;;6.70;4.32;;;17.30;99.90;;;;;;4993097;28;20057;-90
2022/06/04 07:39:36;;;;;;;6.90;4.07;;;17.20;99.90;;;;;;5014773;28;20053;-85
2022/06/04 07:42:08;;;;;;;5.18;3.83;;;17.40;99.90;;;;;;5046966;28;20045;-85
2022/06/04 07:44:34;;;;;;;5.40;4.22;;;17.60;98.40;;;;;;5015109;28;20466;-88
2022/06/04 07:47:12;;;;;;;4.50;3.72;;;17.60;99.80;;;;;;5060611;28;20057;-88
2022/06/04 07:49:38;;;;;;;5.72;4.50;;;17.90;96.30;;;;;;5004089;28;20136;-87
2022/06/04 07:52:06;;;;;;;5.75;4.30;;;18.00;95.50;;;;;;5024476;28;20129;-86
2022/06/04 07:54:34;;;;;;;5.75;4.25;;;18.10;93.00;;;;;;4998112;28;20057;-85
2022/06/04 07:57:02;;;;;;;6.15;4.57;;;18.30;94.00;;;;;;5028100;28;20099;-86
2022/06/04 07:59:30;;;;;;;6.47;4.10;;;18.50;94.30;;;;;;5011870;28;20594;-87
2022/06/04 08:01:58;;;;;;;4.88;3.75;;;19.00;93.50;;;;;;5012702;28;20034;-86
2022/06/04 08:04:33;;;;;;;4.25;3.72;;;19.00;88.00;;;;;;5011359;28;20073;-85
2022/06/04 08:07:07;;;;;;;5.55;4.25;;;19.20;85.30;;;;;;5136591;27;20134;-86
2022/06/04 08:09:38;;;;;;;6.25;3.83;;;19.50;83.10;;;;;;5098564;28;20126;-87
2022/06/04 08:12:04;;;;;;;7.18;4.13;;;19.80;79.50;;;;;;5082423;28;20044;-87
2022/06/04 08:14:38;;;;;;;6.05;5.15;;;20.10;80.00;;;;;;5102264;28;20447;-89
2022/06/04 08:17:16;;;;;;;;;;;;;;;;;;;;;
2022/06/04 08:19:48;;;;;;;6.50;3.72;;;20.20;75.50;;;;;;5102163;28;20461;-91
2022/06/04 08:22:20;;;;;;;5.90;3.90;;;20.40;74.50;;;;;;5089344;28;20044;-86
2022/06/04 08:25:35;;;;;;;4.78;3.67;;;20.50;74.60;;;;;;5112029;28;20594;-92
2022/06/04 08:28:15;;;;;;;4.65;3.65;;;20.70;67.40;;;;;;5107450;28;20047;-89
2022/06/04 08:30:50;;;;;;;8.07;3.92;;;21.20;70.70;;;;;;5077742;28;20055;-90
2022/06/04 08:33:16;;;;;;;6.30;4.22;;;21.60;65.90;;;;;;5073207;28;20055;-89
2022/06/04 08:35:42;;;;;;;7.00;3.92;;;21.80;65.10;;;;;;5106443;28;20051;-82
2022/06/04 08:38:10;;;;;;;6.10;3.88;;;22.30;65.10;;;;;;5101949;28;20539;-83
2022/06/04 08:40:39;;;;;;;5.20;4.70;;;22.60;60.80;;;;;;5091891;28;20047;-82
2022/06/04 08:43:38;;;;;;;7.90;4.30;;;22.80;58.90;;;;;;5069025;28;20036;-82
2022/06/04 08:46:14;;;;;;;6.03;4.10;;;23.00;57.70;;;;;;5094906;28;20507;-82
2022/06/04 08:48:42;;;;;;;6.03;4.03;;;23.20;56.40;;;;;;5098304;28;20070;-83
2022/06/04 08:51:18;;;;;;;5.05;3.80;;;23.40;56.10;;;;;;5081383;28;20051;-82
2022/06/04 08:53:53;;;;;;;6.82;3.40;;;23.50;53.70;;;;;;5125469;28;20039;-82
2022/06/04 08:59:32;;;;;;;7.05;4.07;;;23.90;51.60;;;;;;5091544;28;20059;-82
2022/06/04 09:02:01;;;;;;;4.80;4.10;;;23.60;52.30;;;;;;5092714;28;20949;-82
2022/06/04 09:04:45;;;;;;;4.63;3.80;;;23.80;52.40;;;;;;5087809;28;20051;-81
2022/06/04 09:07:20;;;;;;;6.60;4.88;;;23.90;51.60;;;;;;5083434;28;20209;-83
2022/06/04 09:10:10;;;;;;;7.95;3.88;;;24.00;52.50;;;;;;5088574;28;20120;-83
2022/06/04 09:12:49;;;;;;;6.05;4.25;;;24.40;53.30;;;;;;5091318;28;20496;-83
2022/06/04 09:15:24;;;;;;;6.10;3.78;;;24.80;51.10;;;;;;5090153;28;20039;-83
2022/06/04 09:17:56;;;;;;;7.03;4.32;;;25.10;50.30;;;;;;5080086;28;20069;-83
2022/06/04 09:20:26;;;;;;;6.05;3.60;;;25.10;48.40;;;;;;5086530;28;20473;-87
2022/06/04 09:22:59;;;;;;;6.40;3.50;;;25.20;49.00;;;;;;5089997;28;20404;-90
2022/06/04 09:25:33;;;;;;;5.13;3.13;;;25.20;47.50;;;;;;5075495;28;20118;-87
2022/06/04 09:28:03;;;;;;;4.53;3.70;;;25.20;46.00;;;;;;5086303;28;20392;-87
2022/06/04 09:30:40;;;;;;;5.68;3.42;;;25.10;47.40;;;;;;5090596;28;20043;-88
2022/06/04 09:33:24;;;;;;;3.70;3.30;;;25.20;45.90;;;;;;5074222;28;20051;-88
2022/06/04 09:35:53;;;;;;;3.53;3.05;;;25.40;46.30;;;;;;5090479;28;20048;-87
2022/06/04 09:38:32;;;;;;;4.05;3.33;;;25.70;46.70;;;;;;5082653;28;20052;-87
2022/06/04 09:41:02;;;;;;;5.57;3.05;;;26.20;46.80;;;;;;5086870;28;20447;-87
2022/06/04 09:43:29;;;;;;;3.72;2.70;;;26.80;45.70;;;;;;5091920;28;20052;-87
2022/06/04 09:45:59;;;;;;;6.53;3.10;;;26.90;43.80;;;;;;5070989;28;20040;-87
2022/06/04 09:48:37;;;;;;;4.45;2.90;;;26.70;43.40;;;;;;5063797;28;20126;-87
2022/06/04 09:51:08;;;;;;;4.07;2.53;;;27.10;43.80;;;;;;5077587;28;20086;-87
2022/06/04 09:53:42;;;;;;;5.60;2.92;;;27.50;42.60;;;;;;5084326;28;20044;-88
2022/06/04 09:56:14;;;;;;;5.13;2.78;;;28.00;41.60;;;;;;5068296;28;20059;-88
2022/06/04 09:58:50;;;;;;;4.22;2.60;;;28.30;41.40;;;;;;5089754;28;20047;-86
2022/06/04 10:01:16;;;;;;;5.50;2.55;;;28.40;40.00;;;;;;5076671;28;20069;-85
2022/06/04 10:03:43;;;;;;;6.65;2.75;;;28.00;39.60;;;;;;5075530;28;20453;-86
2022/06/04 10:06:12;;;;;;;4.65;2.72;;;28.00;40.20;;;;;;5067233;28;20051;-85
2022/06/04 10:11:34;;;;;;;5.38;2.42;;;27.20;38.60;;;;;;5090778;28;20070;-85
2022/06/04 10:14:01;;;;;;;4.40;2.40;;;27.30;40.80;;;;;;5068995;28;20043;-88
2022/06/04 10:16:41;;;;;;;3.17;2.20;;;27.90;40.40;;;;;;5059637;28;20044;-85
2022/06/04 10:19:17;;;;;;;4.80;2.45;;;28.30;40.20;;;;;;5064804;28;20128;-86
2022/06/04 10:21:45;;;;;;;5.20;2.55;;;29.00;39.20;;;;;;5067642;28;20044;-87
2022/06/04 10:24:31;;;;;;;4.20;2.30;;;29.40;38.20;;;;;;5092183;28;20129;-86
2022/06/04 10:27:16;;;;;;;3.50;2.55;;;29.30;35.60;;;;;;5086852;28;20127;-86
2022/06/04 10:29:41;;;;;;;3.90;2.25;;;29.00;36.40;;;;;;5064614;28;20047;-84
2022/06/04 10:32:35;;;;;;;3.70;2.63;;;29.10;37.40;;;;;;5061501;28;20058;-87
2022/06/04 10:35:04;;;;;;;6.18;2.80;;;29.50;35.60;;;;;;5070143;28;20048;-86
2022/06/04 10:37:57;;;;;;;3.97;2.47;;;29.40;37.10;;;;;;5065993;28;20080;-86
2022/06/04 10:40:47;;;;;;;3.25;2.08;;;29.90;35.40;;;;;;5075568;28;20044;-86
2022/06/04 10:43:26;;;;;;;3.83;2.25;;;29.70;34.80;;;;;;5079865;28;20114;-90
2022/06/04 10:46:21;;;;;;;4.25;2.42;;;29.80;37.30;;;;;;5092588;28;20043;-86
2022/06/04 10:49:16;;;;;;;2.72;2.20;;;30.10;36.60;;;;;;5057976;28;20044;-86
2022/06/04 10:52:19;;;;;;;3.75;2.22;;;30.20;34.10;;;;;;5049904;28;20056;-86
2022/06/04 10:55:21;;;;;;;4.05;2.17;;;30.40;35.00;;;;;;5106347;28;20046;-91
2022/06/04 10:58:20;;;;;;;3.38;2.10;;;30.40;34.40;;;;;;5071846;28;20044;-86
2022/06/04 11:00:52;;;;;;;4.50;2.10;;;30.50;35.40;;;;;;5066051;28;20051;-88
2022/06/04 11:03:29;;;;;;;6.05;2.60;;;30.80;33.80;;;;;;5064691;28;20090;-86
2022/06/04 11:06:03;;;;;;;4.22;2.08;;;30.40;33.70;;;;;;5079686;28;20420;-87
2022/06/04 11:08:42;;;;;;;3.85;1.90;;;30.50;33.20;;;;;;5063746;28;20047;-86
2022/06/04 11:11:27;;;;;;;4.32;2.15;;;30.70;34.40;;;;;;5083303;28;20040;-91
2022/06/04 11:14:09;;;;;;;3.78;1.92;;;30.90;34.40;;;;;;5064325;28;20082;-88
2022/06/04 11:16:48;;;;;;;3.03;2.17;;;30.80;33.90;;;;;;5063241;28;20035;-87
2022/06/04 11:19:23;;;;;;;3.15;2.05;;;31.10;33.40;;;;;;5083146;28;20036;-86
2022/06/04 11:21:55;;;;;;;2.45;1.73;;;30.90;32.20;;;;;;5071310;28;20047;-85
2022/06/04 11:24:29;;;;;;;3.75;2.40;;;30.90;32.20;;;;;;5088081;28;20058;-85
2022/06/04 11:27:11;;;;;;;4.03;2.00;;;31.00;32.40;;;;;;5082369;28;20052;-84
2022/06/04 11:29:38;;;;;;;2.00;1.80;;;31.20;32.60;;;;;;5080621;28;20044;-85
2022/06/04 11:32:15;;;;;;;1.92;1.67;;;31.50;31.70;;;;;;5088515;28;20044;-85
2022/06/04 11:35:08;;;;;;;6.05;2.30;;;31.50;30.40;;;;;;5088854;28;20431;-84
2022/06/04 11:37:52;;;;;;;4.45;2.00;;;31.60;31.80;;;;;;5086490;28;20035;-87
2022/06/04 11:41:02;;;;;;;3.22;2.28;;;31.50;30.80;;;;;;5069186;28;20454;-87
2022/06/04 11:43:56;;;;;;;3.95;2.45;;;31.90;30.50;;;;;;5074620;28;20048;-86
2022/06/04 11:46:41;;;;;;;3.88;2.35;;;31.90;29.70;;;;;;5084955;28;20039;-88
2022/06/04 11:49:25;;;;;;;4.95;2.17;;;31.70;30.40;;;;;;5093385;28;20059;-86
2022/06/04 11:52:27;;;;;;;5.00;2.05;;;31.90;30.50;;;;;;5079643;28;20090;-87
2022/06/04 11:55:14;;;;;;;5.18;2.08;;;32.00;29.40;;;;;;5094372;28;20067;-87
2022/06/04 11:57:58;;;;;;;3.67;2.40;;;31.70;30.00;;;;;;5092843;28;20048;-87
2022/06/04 12:00:37;;;;;;;4.30;2.20;;;31.60;29.70;;;;;;5092639;28;20123;-88
2022/06/04 12:03:24;;;;;;;4.25;1.95;;;31.70;30.70;;;;;;5073881;28;20044;-87
2022/06/04 12:06:06;;;;;;;4.00;2.08;;;32.30;30.30;;;;;;5073184;28;20052;-87
2022/06/04 12:08:41;;;;;;;3.47;2.03;;;32.70;29.90;;;;;;5082622;28;20066;-86
2022/06/04 12:11:16;;;;;;;3.92;2.17;;;32.60;28.90;;;;;;5093164;28;20043;-86
2022/06/04 12:13:56;;;;;;;5.57;2.85;;;32.50;28.90;;;;;;5081153;28;20044;-87
2022/06/04 12:16:25;;;;;;;2.70;2.00;;;32.60;30.10;;;;;;5093154;28;20047;-87
2022/06/04 12:19:05;;;;;;;4.15;2.20;;;33.00;29.60;;;;;;5087672;28;20047;-87
2022/06/04 12:24:27;;;;;;;3.88;2.20;;;32.70;30.00;;;;;;5088098;28;20083;-87
2022/06/04 12:27:06;;;;;;;4.10;2.20;;;32.70;30.00;;;;;;5085012;28;20036;-88
2022/06/04 12:29:35;;;;;;;4.32;2.03;;;32.40;30.10;;;;;;5073165;28;20138;-86
2022/06/04 12:32:19;;;;;;;2.72;1.80;;;32.50;29.70;;;;;;5067168;28;20086;-87
2022/06/04 12:34:45;;;;;;;3.20;2.00;;;32.10;29.10;;;;;;5075444;28;20070;-86
2022/06/04 12:37:22;;;;;;;5.13;1.80;;;31.60;29.60;;;;;;5081499;28;20048;-87
2022/06/04 12:39:48;;;;;;;3.42;2.00;;;31.60;30.10;;;;;;5088435;28;20036;-87
2022/06/04 12:42:27;;;;;;;3.85;2.30;;;32.30;30.40;;;;;;5064341;28;20051;-87
2022/06/04 12:45:01;;;;;;;2.90;2.05;;;33.10;30.00;;;;;;5065007;28;20048;-87
2022/06/04 12:47:30;;;;;;;3.05;2.10;;;33.40;28.70;;;;;;5057116;28;20056;-87
2022/06/04 12:49:56;;;;;;;2.92;2.17;;;33.30;28.70;;;;;;5058569;28;20058;-86
2022/06/04 12:52:47;;;;;;;4.40;2.42;;;32.90;29.10;;;;;;5077187;28;20118;-89
2022/06/04 12:55:26;;;;;;;5.25;2.33;;;32.30;29.00;;;;;;5081418;28;20046;-86
2022/06/04 12:57:57;;;;;;;3.97;2.40;;;31.60;29.40;;;;;;5097926;28;20069;-86
2022/06/04 13:00:28;;;;;;;6.15;2.28;;;31.00;30.00;;;;;;5066269;28;20044;-89
2022/06/04 13:03:08;;;;;;;3.58;1.88;;;31.10;30.00;;;;;;5076726;28;20054;-87
2022/06/04 13:05:57;;;;;;;5.15;2.05;;;31.40;29.60;;;;;;5070854;28;20056;-87
2022/06/04 13:08:34;;;;;;;5.55;2.15;;;32.10;29.50;;;;;;5087926;28;20131;-90
2022/06/04 13:11:35;;;;;;;4.50;2.03;;;32.60;27.30;;;;;;5088268;28;20127;-88
2022/06/04 13:14:24;;;;;;;2.95;1.88;;;32.60;28.40;;;;;;5085272;28;20052;-88
2022/06/04 13:16:55;;;;;;;3.67;1.80;;;32.40;28.70;;;;;;5080381;28;20048;-86
2022/06/04 13:19:58;;;;;;;3.95;1.90;;;32.30;28.70;;;;;;5059887;28;20044;-86
2022/06/04 13:22:37;;;;;;;4.55;2.10;;;31.70;28.60;;;;;;5080194;28;20040;-88
2022/06/04 13:25:10;;;;;;;4.75;2.17;;;31.30;29.30;;;;;;5080746;28;20082;-87
2022/06/04 13:27:38;;;;;;;6.00;2.30;;;31.50;28.90;;;;;;5080366;28;20051;-86
2022/06/04 13:30:05;;;;;;;2.97;1.70;;;32.20;28.50;;;;;;5065553;28;20044;-87
2022/06/04 13:32:34;;;;;;;2.92;1.90;;;32.50;28.60;;;;;;5093209;28;20036;-86
2022/06/04 13:35:05;;;;;;;5.07;2.00;;;32.40;28.60;;;;;;5088473;28;20044;-88
2022/06/04 13:37:34;;;;;;;3.72;2.15;;;31.60;29.30;;;;;;5068437;28;20054;-87
2022/06/04 13:40:02;;;;;;;4.43;2.50;;;31.20;29.90;;;;;;5090046;28;20053;-87
2022/06/04 13:42:36;;;;;;;3.22;2.30;;;31.20;29.20;;;;;;5076689;28;20123;-90
2022/06/04 13:45:30;;;;;;;2.30;2.00;;;31.90;28.70;;;;;;5087482;28;20493;-88
2022/06/04 13:48:12;;;;;;;4.82;2.00;;;31.90;28.40;;;;;;5083819;28;20048;-86
2022/06/04 13:50:48;;;;;;;3.63;2.15;;;30.90;29.30;;;;;;5092749;28;20059;-86
2022/06/04 13:53:18;;;;;;;3.05;2.35;;;30.30;31.00;;;;;;5089185;28;20047;-89
2022/06/04 13:56:13;;;;;;;5.75;2.70;;;29.70;31.00;;;;;;5092068;28;20040;-86
2022/06/04 13:58:43;;;;;;;6.53;2.53;;;29.30;32.00;;;;;;5088637;28;20501;-88
2022/06/04 14:01:22;;;;;;;3.03;2.20;;;29.30;32.60;;;;;;5075903;28;20300;-87
2022/06/04 14:05:43;;;;;;;2.95;2.17;;;29.40;31.40;;;;;;5085629;28;20455;-88
2022/06/04 14:06:40;;;;;;;5.32;2.15;;;29.90;31.50;;;;;;5077214;28;20052;-87
2022/06/04 14:09:06;;;;;;;5.40;2.13;;;30.20;31.20;;;;;;5061501;28;20055;-89
2022/06/04 14:12:06;;;;;;;3.97;2.80;;;30.20;30.50;;;;;;5084801;28;20105;-90
2022/06/04 14:14:58;;;;;;;6.78;2.45;;;30.30;30.50;;;;;;5069952;28;20062;-89
2022/06/04 14:17:46;;;;;;;4.43;2.65;;;30.60;30.10;;;;;;5072310;28;20040;-87
2022/06/04 14:20:49;;;;;;;3.75;2.25;;;30.90;29.90;;;;;;5076167;28;20054;-87